createdAt,value
2019-02-21T00:00:56.629Z,24.27
2019-02-21T00:03:24.444Z,16.97
2019-02-21T00:05:53.508Z,19.43
2019-02-21T00:08:21.189Z,22.93
2019-02-21T00:10:49.058Z,19.40
2019-02-21T00:13:16.861Z,21.43
2019-02-21T00:15:44.524Z,19.23
2019-02-21T00:18:12.244Z,24.50
2019-02-21T00:20:40.886Z,19.50
2019-02-21T00:23:08.627Z,21.50
2019-02-21T00:25:37.205Z,18.30
2019-02-21T00:28:08.023Z,16.90
2019-02-21T00:30:37.040Z,17.80
2019-02-21T00:33:06.396Z,22.50
2019-02-21T00:35:34.134Z,19.93
2019-02-21T00:38:04.062Z,20.97
2019-02-21T00:40:31.747Z,16.47
2019-02-21T00:43:03.475Z,16.80
2019-02-21T00:45:34.018Z,23.83
2019-02-21T00:48:01.964Z,19.17
2019-02-21T00:50:30.491Z,21.57
2019-02-21T00:52:59.605Z,19.40
2019-02-21T00:55:27.986Z,18.93
2019-02-21T00:57:57.982Z,20.63
2019-02-21T01:00:30.445Z,18.27
2019-02-21T01:02:58.527Z,20.47
2019-02-21T01:05:26.313Z,17.00
2019-02-21T01:07:58.309Z,21.53
2019-02-21T01:10:26.523Z,19.30
2019-02-21T01:12:58.601Z,20.40
2019-02-21T01:15:23.865Z,19.40
2019-02-21T01:17:51.737Z,21.30
2019-02-21T01:20:19.323Z,20.03
2019-02-21T01:22:48.779Z,22.47
2019-02-21T01:25:17.568Z,23.27
2019-02-21T01:27:47.948Z,22.53
2019-02-21T01:30:15.775Z,21.67
2019-02-21T01:32:43.573Z,25.10
2019-02-21T01:35:11.663Z,21.70
2019-02-21T01:37:39.249Z,22.57
2019-02-21T01:40:07.287Z,20.33
2019-02-21T01:42:36.507Z,21.20
2019-02-21T01:45:04.501Z,21.63
2019-02-21T01:47:33.525Z,18.73
2019-02-21T01:50:02.939Z,19.93
2019-02-21T01:52:30.807Z,19.27
2019-02-21T01:54:58.555Z,18.30
2019-02-21T01:57:26.395Z,22.40
2019-02-21T01:59:58.326Z,18.77
2019-02-21T02:02:26.017Z,19.43
2019-02-21T02:04:56.708Z,18.50
2019-02-21T02:07:25.107Z,18.40
2019-02-21T02:09:55.644Z,21.00
2019-02-21T02:12:23.549Z,25.97
2019-02-21T02:14:53.168Z,17.63
2019-02-21T02:17:23.676Z,22.13
2019-02-21T02:19:53.752Z,22.90
2019-02-21T02:22:22.071Z,16.27
2019-02-21T02:24:55.978Z,17.63
2019-02-21T02:27:26.896Z,19.40
2019-02-21T02:29:54.692Z,21.50
2019-02-21T02:32:22.302Z,20.53
2019-02-21T02:34:56.467Z,17.47
2019-02-21T02:37:24.113Z,18.17
2019-02-21T02:39:52.011Z,22.13
2019-02-21T02:42:30.664Z,24.17
2019-02-21T02:45:00.516Z,19.73
2019-02-21T02:47:29.322Z,21.27
2019-02-21T02:49:57.510Z,17.97
2019-02-21T02:52:26.765Z,20.20
2019-02-21T02:54:57.516Z,16.83
2019-02-21T02:57:25.091Z,20.90
2019-02-21T02:59:53.012Z,24.10
2019-02-21T03:02:22.806Z,19.93
2019-02-21T03:04:50.778Z,19.17
2019-02-21T03:07:20.140Z,19.27
2019-02-21T03:09:49.042Z,16.63
2019-02-21T03:12:19.537Z,17.80
2019-02-21T03:14:48.342Z,19.27
2019-02-21T03:17:16.136Z,21.07
2019-02-21T03:19:45.195Z,16.33
2019-02-21T03:22:15.809Z,19.63
2019-02-21T03:24:44.040Z,17.30
2019-02-21T03:27:14.923Z,19.77
2019-02-21T03:29:42.637Z,19.77
2019-02-21T03:32:10.508Z,18.43
2019-02-21T03:34:40.433Z,19.57
2019-02-21T03:37:08.248Z,20.73
2019-02-21T03:39:39.572Z,19.00
2019-02-21T03:42:07.421Z,18.97
2019-02-21T03:44:35.034Z,22.13
2019-02-21T03:47:04.962Z,17.80
2019-02-21T03:49:32.545Z,20.67
2019-02-21T03:52:00.289Z,19.20
2019-02-21T03:54:27.898Z,20.77
2019-02-21T03:56:55.667Z,21.23
2019-02-21T03:59:23.618Z,19.00
2019-02-21T04:01:51.539Z,18.33
2019-02-21T04:04:19.334Z,20.77
2019-02-21T04:06:49.371Z,21.60
2019-02-21T04:09:18.584Z,22.23
2019-02-21T04:11:46.176Z,19.50
2019-02-21T04:14:21.123Z,21.10
2019-02-21T04:16:52.226Z,24.53
2019-02-21T04:19:25.059Z,24.40
2019-02-21T04:21:52.811Z,19.77
2019-02-21T04:24:23.436Z,21.83
2019-02-21T04:26:51.124Z,22.93
2019-02-21T04:29:20.452Z,21.67
2019-02-21T04:31:50.889Z,21.03
2019-02-21T04:34:19.950Z,21.97
2019-02-21T04:36:52.504Z,21.93
2019-02-21T04:39:20.393Z,24.50
2019-02-21T04:41:48.091Z,21.20
2019-02-21T04:44:26.236Z,24.23
2019-02-21T04:46:54.033Z,20.57
2019-02-21T04:49:21.850Z,21.77
2019-02-21T04:51:49.577Z,21.13
2019-02-21T04:54:19.272Z,22.00
2019-02-21T04:56:46.992Z,19.60
2019-02-21T04:59:16.881Z,21.10
2019-02-21T05:01:45.169Z,23.83
2019-02-21T05:04:12.639Z,21.13
2019-02-21T05:06:45.435Z,23.23
2019-02-21T05:09:14.978Z,19.53
2019-02-21T05:11:42.662Z,21.93
2019-02-21T05:14:10.433Z,22.10
2019-02-21T05:16:40.390Z,23.50
2019-02-21T05:19:08.328Z,23.73
2019-02-21T05:21:35.944Z,23.40
2019-02-21T05:24:06.002Z,23.23
2019-02-21T05:26:45.191Z,25.50
2019-02-21T05:29:13.129Z,26.67
2019-02-21T05:31:56.545Z,25.73
2019-02-21T05:34:50.835Z,24.70
2019-02-21T05:37:53.191Z,21.93
2019-02-21T05:40:43.089Z,25.60
2019-02-21T05:43:17.924Z,31.87
2019-02-21T05:46:04.087Z,26.73
2019-02-21T05:48:51.419Z,21.20
2019-02-21T05:51:34.539Z,24.60
2019-02-21T05:54:18.404Z,25.27
2019-02-21T05:57:04.333Z,26.47
2019-02-21T06:00:00.534Z,23.33
2019-02-21T06:02:35.287Z,27.17
2019-02-21T06:05:12.047Z,28.53
2019-02-21T06:07:58.768Z,25.73
2019-02-21T06:10:43.206Z,21.80
2019-02-21T06:13:30.377Z,23.60
2019-02-21T06:16:20.682Z,24.10
2019-02-21T06:19:12.455Z,22.40
2019-02-21T06:21:53.218Z,20.40
2019-02-21T06:24:30.021Z,20.93
2019-02-21T06:27:23.473Z,24.83
2019-02-21T06:30:03.451Z,23.27
2019-02-21T06:32:32.359Z,25.83
2019-02-21T06:35:02.508Z,23.63
2019-02-21T06:37:29.693Z,21.87
2019-02-21T06:39:58.737Z,25.60
2019-02-21T06:42:26.605Z,24.07
2019-02-21T06:44:54.429Z,22.97
2019-02-21T06:47:22.250Z,26.47
2019-02-21T06:49:50.130Z,26.83
2019-02-21T06:52:19.863Z,25.27
2019-02-21T06:54:48.098Z,24.00
2019-02-21T06:57:19.160Z,24.30
2019-02-21T06:59:46.687Z,22.93
2019-02-21T07:02:15.702Z,23.83
2019-02-21T07:04:43.613Z,23.83
2019-02-21T07:07:13.055Z,21.73
2019-02-21T07:09:43.255Z,25.37
2019-02-21T07:12:12.388Z,26.00
2019-02-21T07:14:42.343Z,25.97
2019-02-21T07:17:12.314Z,22.93
2019-02-21T07:19:40.078Z,23.97
2019-02-21T07:22:07.809Z,26.73
2019-02-21T07:24:38.409Z,24.47
2019-02-21T07:27:05.450Z,25.70
2019-02-21T07:29:34.298Z,27.77
2019-02-21T07:32:07.986Z,25.23
2019-02-21T07:34:38.028Z,23.50
2019-02-21T07:37:05.549Z,24.20
2019-02-21T07:39:36.029Z,25.33
2019-02-21T07:42:05.064Z,24.50
2019-02-21T07:44:34.271Z,22.67
2019-02-21T07:47:01.904Z,25.57
2019-02-21T07:49:29.589Z,25.07
2019-02-21T07:51:57.083Z,24.30
2019-02-21T07:54:34.255Z,24.07
2019-02-21T07:57:02.143Z,20.40
2019-02-21T07:59:29.808Z,21.63
2019-02-21T08:01:57.483Z,25.37
2019-02-21T08:04:30.241Z,25.20
2019-02-21T08:06:58.485Z,23.33
2019-02-21T08:09:31.956Z,23.50
2019-02-21T08:11:59.498Z,25.80
2019-02-21T08:14:31.449Z,26.20
2019-02-21T08:16:58.952Z,24.87
2019-02-21T08:19:27.877Z,26.20
2019-02-21T08:21:55.530Z,22.50
2019-02-21T08:24:23.018Z,24.43
2019-02-21T08:26:50.393Z,24.60
2019-02-21T08:29:20.542Z,25.07
2019-02-21T08:31:47.749Z,23.27
2019-02-21T08:34:23.189Z,25.40
2019-02-21T08:36:50.813Z,24.10
2019-02-21T08:39:18.370Z,24.77
2019-02-21T08:41:46.003Z,24.87
2019-02-21T08:44:13.517Z,23.30
2019-02-21T08:46:48.099Z,26.47
2019-02-21T08:49:15.672Z,23.50
2019-02-21T08:51:46.398Z,23.07
2019-02-21T08:54:14.029Z,25.20
2019-02-21T08:56:49.173Z,21.90
2019-02-21T08:59:16.645Z,26.37
2019-02-21T09:01:44.304Z,24.93
2019-02-21T09:04:26.382Z,24.87
2019-02-21T09:06:41.591Z,26.37
2019-02-21T09:09:09.726Z,27.90
2019-02-21T09:11:39.885Z,24.07
2019-02-21T09:14:07.676Z,28.70
2019-02-21T09:16:35.747Z,28.40
2019-02-21T09:19:03.449Z,27.07
2019-02-21T09:21:31.039Z,27.47
2019-02-21T09:23:58.763Z,24.40
2019-02-21T09:26:26.234Z,27.40
2019-02-21T09:28:58.293Z,27.37
2019-02-21T09:31:24.815Z,27.90
2019-02-21T09:33:53.728Z,26.13
2019-02-21T09:36:30.250Z,26.67
2019-02-21T09:38:57.987Z,29.27
2019-02-21T09:41:25.482Z,27.83
2019-02-21T09:43:59.490Z,27.30
2019-02-21T09:46:26.969Z,28.57
2019-02-21T09:48:56.226Z,28.50
2019-02-21T09:51:24.050Z,28.07
2019-02-21T09:53:53.193Z,27.90
2019-02-21T09:56:29.873Z,27.60
2019-02-21T09:58:50.852Z,26.63
2019-02-21T10:01:18.544Z,27.07
2019-02-21T10:03:46.190Z,26.87
2019-02-21T10:06:14.108Z,24.77
2019-02-21T10:08:43.796Z,22.57
2019-02-21T10:11:11.919Z,27.43
2019-02-21T10:13:41.617Z,26.80
2019-02-21T10:16:09.037Z,27.67
2019-02-21T10:18:36.624Z,25.90
2019-02-21T10:21:04.443Z,22.87
2019-02-21T10:23:32.990Z,32.90
2019-02-21T10:26:04.774Z,29.00
2019-02-21T10:28:32.840Z,27.37
2019-02-21T10:31:00.248Z,24.73
2019-02-21T10:33:28.827Z,22.80
2019-02-21T10:36:00.578Z,27.70
2019-02-21T10:38:30.198Z,25.63
2019-02-21T10:40:57.826Z,21.77
2019-02-21T10:43:27.925Z,24.63
2019-02-21T10:46:00.795Z,22.57
2019-02-21T10:48:28.503Z,24.13
2019-02-21T10:50:59.922Z,19.53
2019-02-21T10:53:27.594Z,20.23
2019-02-21T10:55:55.220Z,21.93
2019-02-21T10:58:22.855Z,21.40
2019-02-21T11:00:51.159Z,21.00
2019-02-21T11:03:19.103Z,23.50
2019-02-21T11:05:46.741Z,21.47
2019-02-21T11:08:14.113Z,21.93
2019-02-21T11:10:41.820Z,22.37
2019-02-21T11:13:09.311Z,21.43
2019-02-21T11:15:42.177Z,25.13
2019-02-21T11:18:27.178Z,21.23
2019-02-21T11:20:54.998Z,20.83
2019-02-21T11:23:43.964Z,22.00
2019-02-21T11:26:11.703Z,21.93
2019-02-21T11:28:40.782Z,18.10
2019-02-21T11:31:09.369Z,20.77
2019-02-21T11:33:49.074Z,17.30
2019-02-21T11:36:22.900Z,18.57
2019-02-21T11:38:50.466Z,18.57
2019-02-21T11:41:20.688Z,20.07
2019-02-21T11:44:01.110Z,22.20
2019-02-21T11:46:28.582Z,17.83
2019-02-21T11:49:00.243Z,19.73
2019-02-21T11:51:29.509Z,19.83
2019-02-21T11:53:57.425Z,16.37
2019-02-21T11:56:35.475Z,16.50
2019-02-21T11:59:03.116Z,19.40
2019-02-21T12:01:31.265Z,15.47
2019-02-21T12:04:00.639Z,15.90
2019-02-21T12:06:42.182Z,16.33
2019-02-21T12:09:12.049Z,15.57
2019-02-21T12:11:54.931Z,16.27
2019-02-21T12:14:22.963Z,25.30
2019-02-21T12:16:54.314Z,17.50
2019-02-21T12:19:27.879Z,15.10
2019-02-21T12:21:58.943Z,15.03
2019-02-21T12:24:27.715Z,18.07
2019-02-21T12:26:55.210Z,19.13
2019-02-21T12:29:26.752Z,20.20
2019-02-21T12:32:00.311Z,21.47
2019-02-21T12:34:28.724Z,18.10
2019-02-21T12:37:02.220Z,19.27
2019-02-21T12:39:30.046Z,20.30
2019-02-21T12:42:00.472Z,20.00
2019-02-21T12:44:29.084Z,21.70
2019-02-21T12:46:56.852Z,16.37
2019-02-21T12:49:33.631Z,19.63
2019-02-21T12:52:01.418Z,19.93
2019-02-21T12:54:28.971Z,19.47
2019-02-21T12:57:02.074Z,23.87
2019-02-21T12:59:30.008Z,20.57
2019-02-21T13:01:58.552Z,19.67
2019-02-21T13:04:26.163Z,23.30
2019-02-21T13:06:58.348Z,21.03
2019-02-21T13:09:25.777Z,18.83
2019-02-21T13:11:53.379Z,21.97
2019-02-21T13:14:23.628Z,20.27
2019-02-21T13:16:51.244Z,21.07
2019-02-21T13:19:20.301Z,19.90
2019-02-21T13:22:02.507Z,24.70
2019-02-21T13:24:31.952Z,21.53
2019-02-21T13:27:07.100Z,22.57
2019-02-21T13:29:56.515Z,22.63
2019-02-21T13:32:24.531Z,23.07
2019-02-21T13:34:57.373Z,23.50
2019-02-21T13:37:28.570Z,23.93
2019-02-21T13:39:57.397Z,22.30
2019-02-21T13:42:25.527Z,21.93
2019-02-21T13:44:54.942Z,20.03
2019-02-21T13:47:24.664Z,23.30
2019-02-21T13:49:53.295Z,24.60
2019-02-21T13:55:18.289Z,24.43
2019-02-21T13:57:51.764Z,20.83
2019-02-21T14:00:19.248Z,24.43
2019-02-21T14:02:46.752Z,19.67
2019-02-21T14:05:14.352Z,26.90
2019-02-21T14:07:45.208Z,22.10
2019-02-21T14:10:23.694Z,21.90
2019-02-21T14:12:55.120Z,20.97
2019-02-21T14:15:24.332Z,23.50
2019-02-21T14:17:52.187Z,22.80
2019-02-21T14:20:19.981Z,20.90
2019-02-21T14:22:47.486Z,22.53
2019-02-21T14:25:15.325Z,22.03
2019-02-21T14:27:45.300Z,23.87
2019-02-21T14:30:23.762Z,23.73
2019-02-21T14:32:51.324Z,22.63
2019-02-21T14:35:36.108Z,21.60
2019-02-21T14:38:29.372Z,20.77
2019-02-21T14:41:01.400Z,22.50
2019-02-21T14:43:35.346Z,24.20
2019-02-21T14:46:04.164Z,22.10
2019-02-21T14:48:33.044Z,21.00
2019-02-21T14:51:03.324Z,24.87
2019-02-21T14:53:31.208Z,21.83
2019-02-21T14:56:04.847Z,22.67
2019-02-21T14:58:33.101Z,25.23
2019-02-21T15:01:03.933Z,26.60
2019-02-21T15:03:31.616Z,28.40
2019-02-21T15:05:59.258Z,25.20
2019-02-21T15:08:27.514Z,24.63
2019-02-21T15:10:56.847Z,27.23
2019-02-21T15:13:25.581Z,27.20
2019-02-21T15:15:53.215Z,25.37
2019-02-21T15:18:28.463Z,31.03
2019-02-21T15:20:56.171Z,24.17
2019-02-21T15:23:23.980Z,27.70
2019-02-21T15:25:52.202Z,26.17
2019-02-21T15:28:23.380Z,27.53
2019-02-21T15:30:51.677Z,26.37
2019-02-21T15:33:46.808Z,29.00
2019-02-21T15:36:17.770Z,25.50
2019-02-21T15:38:45.430Z,24.57
2019-02-21T15:41:13.096Z,23.60
2019-02-21T15:43:42.202Z,27.27
2019-02-21T15:46:12.640Z,26.73
2019-02-21T15:48:45.192Z,28.40
2019-02-21T15:51:17.227Z,24.83
2019-02-21T15:53:44.993Z,26.83
2019-02-21T15:56:14.803Z,24.07
2019-02-21T15:58:42.367Z,26.80
2019-02-21T16:01:09.891Z,30.27
2019-02-21T16:03:38.119Z,29.30
2019-02-21T16:06:07.525Z,32.17
2019-02-21T16:08:38.404Z,31.23
2019-02-21T16:11:49.560Z,28.97
2019-02-21T16:14:20.713Z,27.87
2019-02-21T16:16:50.458Z,27.23
2019-02-21T16:19:19.267Z,29.53
2019-02-21T16:21:53.566Z,32.70
2019-02-21T16:24:21.186Z,27.07
2019-02-21T16:26:48.663Z,29.30
2019-02-21T16:29:16.197Z,29.37
2019-02-21T16:31:46.925Z,28.83
2019-02-21T16:34:14.684Z,26.53
2019-02-21T16:36:42.189Z,27.53
2019-02-21T16:39:09.923Z,27.83
2019-02-21T16:41:40.306Z,23.63
2019-02-21T16:44:07.930Z,28.23
2019-02-21T16:46:37.827Z,25.80
2019-02-21T16:49:05.704Z,26.57
2019-02-21T16:51:37.001Z,21.57
2019-02-21T16:54:04.646Z,24.40
2019-02-21T16:56:35.528Z,24.53
2019-02-21T16:59:06.512Z,23.97
2019-02-21T17:01:36.547Z,25.57
2019-02-21T17:04:22.142Z,24.43
2019-02-21T17:06:50.071Z,22.23
2019-02-21T17:09:19.118Z,26.17
2019-02-21T17:11:50.198Z,26.40
2019-02-21T17:14:18.436Z,24.50
2019-02-21T17:16:49.176Z,22.20
2019-02-21T17:19:21.338Z,24.30
2019-02-21T17:21:50.840Z,25.40
2019-02-21T17:24:21.768Z,26.93
2019-02-21T17:26:55.929Z,24.70
2019-02-21T17:29:47.644Z,28.10
2019-02-21T17:32:16.272Z,24.83
2019-02-21T17:34:46.595Z,29.67
2019-02-21T17:37:24.945Z,23.80
2019-02-21T17:40:06.030Z,26.57
2019-02-21T17:43:10.592Z,23.93
2019-02-21T17:45:46.286Z,25.67
2019-02-21T17:48:16.786Z,22.90
2019-02-21T17:50:56.998Z,28.53
2019-02-21T17:53:47.080Z,25.43
2019-02-21T17:56:17.586Z,25.77
2019-02-21T17:59:05.608Z,27.13
2019-02-21T18:01:34.016Z,25.17
2019-02-21T18:04:38.690Z,27.00
2019-02-21T18:07:21.430Z,28.63
2019-02-21T18:10:08.034Z,28.87
2019-02-21T18:12:35.869Z,30.47
2019-02-21T18:15:05.497Z,29.53
2019-02-21T18:18:05.779Z,29.30
2019-02-21T18:20:37.658Z,25.43
2019-02-21T18:23:05.753Z,29.77
2019-02-21T18:28:49.196Z,25.43
2019-02-21T18:31:21.742Z,32.63
2019-02-21T18:33:49.468Z,29.13
2019-02-21T18:36:17.105Z,27.10
2019-02-21T18:38:45.896Z,30.87
2019-02-21T18:41:13.661Z,30.40
2019-02-21T18:43:41.737Z,29.13
2019-02-21T18:46:10.540Z,30.10
2019-02-21T18:48:38.267Z,30.00
2019-02-21T18:51:06.129Z,32.97
2019-02-21T18:53:34.469Z,30.27
2019-02-21T18:56:02.329Z,30.30
2019-02-21T18:58:32.022Z,27.57
2019-02-21T19:00:59.672Z,29.07
2019-02-21T19:03:27.323Z,32.53
2019-02-21T19:05:54.937Z,34.30
2019-02-21T19:08:24.334Z,32.47
2019-02-21T19:10:51.991Z,29.37
2019-02-21T19:13:20.901Z,31.53
2019-02-21T19:15:50.304Z,32.90
2019-02-21T19:18:18.255Z,28.40
2019-02-21T19:20:46.027Z,32.77
2019-02-21T19:23:14.025Z,31.33
2019-02-21T19:25:42.035Z,31.93
2019-02-21T19:28:09.941Z,29.17
2019-02-21T19:30:41.265Z,31.40
2019-02-21T19:33:09.660Z,33.23
2019-02-21T19:35:37.362Z,29.53
2019-02-21T19:38:10.315Z,29.90
2019-02-21T19:40:40.277Z,29.33
2019-02-21T19:43:08.172Z,34.00
2019-02-21T19:45:35.956Z,31.53
2019-02-21T19:48:04.368Z,30.33
2019-02-21T19:50:32.052Z,31.73
2019-02-21T19:53:00.245Z,33.30
2019-02-21T19:55:29.476Z,28.77
2019-02-21T19:57:57.171Z,33.10
2019-02-21T20:00:25.693Z,33.60
2019-02-21T20:02:54.016Z,31.90
2019-02-21T20:05:21.993Z,30.87
2019-02-21T20:07:49.699Z,29.00
2019-02-21T20:10:36.844Z,28.53
2019-02-21T20:13:07.208Z,32.00
2019-02-21T20:15:35.121Z,29.83
2019-02-21T20:18:02.795Z,29.63
2019-02-21T20:20:30.546Z,26.30
2019-02-21T20:23:00.247Z,31.27
2019-02-21T20:25:28.001Z,34.87
2019-02-21T20:27:58.677Z,35.50
2019-02-21T20:30:26.828Z,27.67
2019-02-21T20:32:54.556Z,26.93
2019-02-21T20:35:22.271Z,25.83
2019-02-21T20:37:49.938Z,27.70
2019-02-21T20:40:17.754Z,29.17
2019-02-21T20:42:47.434Z,30.53
2019-02-21T20:45:15.187Z,25.80
2019-02-21T20:47:42.866Z,30.90
2019-02-21T20:50:11.024Z,26.53
2019-02-21T20:52:39.008Z,26.77
2019-02-21T20:55:06.930Z,29.10
2019-02-21T20:57:34.892Z,26.37
2019-02-21T21:00:03.510Z,29.33
2019-02-21T21:02:32.767Z,31.17
2019-02-21T21:05:00.440Z,30.57
2019-02-21T21:07:28.355Z,29.07
2019-02-21T21:09:56.074Z,32.30
2019-02-21T21:12:23.721Z,33.47
2019-02-21T21:14:51.497Z,32.33
2019-02-21T21:17:19.140Z,33.37
2019-02-21T21:19:46.860Z,31.67
2019-02-21T21:22:14.590Z,37.33
2019-02-21T21:24:43.382Z,34.23
2019-02-21T21:27:11.028Z,36.10
2019-02-21T21:29:38.690Z,35.87
2019-02-21T21:32:06.188Z,39.60
2019-02-21T21:34:33.727Z,43.83
2019-02-21T21:37:01.343Z,42.40
2019-02-21T21:39:28.960Z,45.63
2019-02-21T21:41:56.576Z,52.03
2019-02-21T21:44:24.147Z,46.57
2019-02-21T21:46:51.777Z,50.13
2019-02-21T21:49:19.366Z,48.83
2019-02-21T21:51:47.023Z,45.93
2019-02-21T21:54:14.681Z,51.53
2019-02-21T21:56:42.329Z,45.93
2019-02-21T21:59:10.030Z,48.03
2019-02-21T22:01:39.938Z,50.87
2019-02-21T22:04:07.747Z,51.87
2019-02-21T22:06:35.423Z,50.83
2019-02-21T22:09:05.121Z,53.60
2019-02-21T22:11:34.302Z,56.87
2019-02-21T22:14:01.873Z,48.70
2019-02-21T22:16:29.487Z,49.43
2019-02-21T22:18:57.085Z,49.67
2019-02-21T22:21:24.720Z,50.60
2019-02-21T22:23:52.704Z,51.60
2019-02-21T22:26:20.363Z,48.97
2019-02-21T22:28:47.988Z,52.47
2019-02-21T22:31:15.615Z,51.57
2019-02-21T22:33:43.224Z,53.30
2019-02-21T22:36:10.997Z,47.40
2019-02-21T22:38:38.551Z,50.07
2019-02-21T22:41:06.239Z,47.47
2019-02-21T22:43:33.925Z,50.30
2019-02-21T22:46:01.418Z,50.67
2019-02-21T22:48:29.012Z,51.00
2019-02-21T22:50:56.741Z,49.67
2019-02-21T22:53:24.450Z,49.17
2019-02-21T22:55:52.061Z,51.83
2019-02-21T22:58:19.620Z,53.43
2019-02-21T23:01:17.912Z,49.03
2019-02-21T23:03:54.307Z,49.30
2019-02-21T23:06:38.377Z,52.07
2019-02-21T23:09:13.337Z,50.63
2019-02-21T23:11:41.127Z,50.33
2019-02-21T23:14:08.864Z,51.90
2019-02-21T23:16:36.383Z,50.13
2019-02-21T23:19:04.035Z,50.33
2019-02-21T23:21:51.192Z,44.50
2019-02-21T23:24:18.832Z,48.93
2019-02-21T23:26:46.416Z,43.83
2019-02-21T23:29:14.010Z,41.13
2019-02-21T23:31:41.528Z,39.53
2019-02-21T23:34:14.232Z,41.03
2019-02-21T23:36:42.846Z,34.43
2019-02-21T23:39:10.542Z,35.83
2019-02-21T23:41:38.282Z,36.27
2019-02-21T23:44:05.894Z,32.83
2019-02-21T23:46:33.410Z,32.17
2019-02-21T23:49:01.049Z,32.70
2019-02-21T23:51:28.623Z,30.53
2019-02-21T23:54:02.961Z,27.20
2019-02-21T23:56:25.661Z,28.73
2019-02-21T23:58:53.274Z,27.37
